Holly Ann — WDE9094 — position and weather

sailwx.info

Track history (hours):
 
Tides and Currents Weather Stations Pressure Air Temp Water Temp Dewpoint Dewpoint Depression Visibility Wind Speed Wind Dir Waves Ship Positions

Holly Ann

Owner: Manke Tug and Barge Co., Inc., Shelton, WA. More information available from US FCC via Universal Licensing System and Coast Guard Vessel Documentation Center.

Last reported at 2016-Sep-24 03:11 UTC. Time now 2016-Sep-28 03:28 UTC.
Position N 47°12' W 122°39'.

; draft 4.5 m.

Type: Towing. MMSI: 367413350.

Date/timePositionNaut miles runAvg speedWind from/ knotsBaromVisibWave heightAir tempDewpointWater temp
2016-Sep-24 03:11N 47°12' W 122°39'5 8.3
2016-Sep-24 02:33N 47°15' W 122°34'8 8.0
2016-Sep-24 01:33N 47°23' W 122°32'7 7.3
2016-Sep-24 00:33N 47°30' W 122°29'7 1.3
2016-Sep-23 19:33N 47°33' W 122°21'2 1.0
2016-Sep-23 17:33N 47°35' W 122°21'0 0.0
2016-Sep-23 16:33N 47°35' W 122°21'0 0.0
2016-Sep-23 15:33N 47°35' W 122°21'2 0.9
2016-Sep-23 13:33N 47°33' W 122°21'9 2.3
2016-Sep-23 09:33N 47°28' W 122°31'12 0.4
2016-Sep-22 00:33N 47°16' W 122°33'8 7.7
2016-Sep-21 23:33N 47°23' W 122°32'7 7.4
2016-Sep-21 22:33N 47°30' W 122°29'7 2.2
2016-Sep-21 19:33N 47°33' W 122°20'0 0.0
2016-Sep-21 16:33N 47°33' W 122°20'0 0.0
2016-Sep-21 09:33N 47°33' W 122°20'0 0.0
2016-Sep-21 08:33N 47°33' W 122°20'0 0.0
2016-Sep-21 05:34N 47°33' W 122°20'0 0.0
2016-Sep-21 03:33N 47°33' W 122°20'0 0.0
2016-Sep-21 02:33N 47°33' W 122°20'0 0.0
2016-Sep-20 17:33N 47°33' W 122°20'0 0.0
2016-Sep-20 14:33N 47°33' W 122°20'0 0.0
2016-Sep-20 13:33N 47°33' W 122°20'4 1.4
2016-Sep-20 10:33N 47°35' W 122°26'6 3.1
2016-Sep-20 08:33N 47°29' W 122°30'5 5.4
2016-Sep-20 07:33N 47°24' W 122°32'8 8.3
2016-Sep-20 06:32N 47°15' W 122°34'  
2016-Sep-16 17:33N 47°33' W 122°21'0 0.0
2016-Sep-16 15:33N 47°33' W 122°21'0 0.0
2016-Sep-16 12:33N 47°33' W 122°21'0 0.0
2016-Sep-16 09:33N 47°33' W 122°21'0 0.0
2016-Sep-16 07:33N 47°33' W 122°21'20 5.0
2016-Sep-16 03:33N 47°15' W 122°34'9 8.2
2016-Sep-16 02:28N 47°10' W 122°44'27 1.2
2016-Sep-15 04:34N 47°35' W 122°27'6 6.4
2016-Sep-15 03:34N 47°41' W 122°26'11 5.5
2016-Sep-15 01:34N 47°52' W 122°22'12 4.0
2016-Sep-14 22:33N 48°01' W 122°11'0 0.0
2016-Sep-14 21:33N 48°01' W 122°11'0 0.0
2016-Sep-14 17:16N 48°01' W 122°11'0 0.0
2016-Sep-14 16:08N 48°01' W 122°11'0 0.0
2016-Sep-14 13:32N 48°01' W 122°11'0 0.0
2016-Sep-14 12:27N 48°01' W 122°11'0 0.0
2016-Sep-14 10:12N 48°01' W 122°11'2 2.7
2016-Sep-14 09:34N 48°00' W 122°13'7 7.3
2016-Sep-14 08:34N 47°55' W 122°21'8 7.7
2016-Sep-14 07:33N 47°48' W 122°24'7 7.5
2016-Sep-14 06:34N 47°40' W 122°27'22 7.4
2016-Sep-14 03:33N 47°18' W 122°33'  
Track history (hours):
 
Tides and Currents Weather Stations Pressure Air Temp Water Temp Dewpoint Dewpoint Depression Visibility Wind Speed Wind Dir Waves Ship Positions

Holly Ann

Owner: Manke Tug and Barge Co., Inc., Shelton, WA. More information available from US FCC via Universal Licensing System and Coast Guard Vessel Documentation Center.

Last reported at 2016-Sep-24 03:11 UTC. Time now 2016-Sep-28 03:28 UTC.
Position N 47°12' W 122°39'.

; draft 4.5 m.

Type: Towing. MMSI: 367413350.

Date/timePositionNaut miles runAvg speedWind from/ knotsBaromVisibWave heightAir tempDewpointWater temp
2016-Sep-24 03:11N 47°12' W 122°39'5 8.3
2016-Sep-24 02:33N 47°15' W 122°34'8 8.0
2016-Sep-24 01:33N 47°23' W 122°32'7 7.3
2016-Sep-24 00:33N 47°30' W 122°29'7 1.3
2016-Sep-23 19:33N 47°33' W 122°21'2 1.0
2016-Sep-23 17:33N 47°35' W 122°21'0 0.0
2016-Sep-23 16:33N 47°35' W 122°21'0 0.0
2016-Sep-23 15:33N 47°35' W 122°21'2 0.9
2016-Sep-23 13:33N 47°33' W 122°21'9 2.3
2016-Sep-23 09:33N 47°28' W 122°31'12 0.4
2016-Sep-22 00:33N 47°16' W 122°33'8 7.7
2016-Sep-21 23:33N 47°23' W 122°32'7 7.4
2016-Sep-21 22:33N 47°30' W 122°29'7 2.2
2016-Sep-21 19:33N 47°33' W 122°20'0 0.0
2016-Sep-21 16:33N 47°33' W 122°20'0 0.0
2016-Sep-21 09:33N 47°33' W 122°20'0 0.0
2016-Sep-21 08:33N 47°33' W 122°20'0 0.0
2016-Sep-21 05:34N 47°33' W 122°20'0 0.0
2016-Sep-21 03:33N 47°33' W 122°20'0 0.0
2016-Sep-21 02:33N 47°33' W 122°20'0 0.0
2016-Sep-20 17:33N 47°33' W 122°20'0 0.0
2016-Sep-20 14:33N 47°33' W 122°20'0 0.0
2016-Sep-20 13:33N 47°33' W 122°20'4 1.4
2016-Sep-20 10:33N 47°35' W 122°26'6 3.1
2016-Sep-20 08:33N 47°29' W 122°30'5 5.4
2016-Sep-20 07:33N 47°24' W 122°32'8 8.3
2016-Sep-20 06:32N 47°15' W 122°34'  
2016-Sep-16 17:33N 47°33' W 122°21'0 0.0
2016-Sep-16 15:33N 47°33' W 122°21'0 0.0
2016-Sep-16 12:33N 47°33' W 122°21'0 0.0
2016-Sep-16 09:33N 47°33' W 122°21'0 0.0
2016-Sep-16 07:33N 47°33' W 122°21'20 5.0
2016-Sep-16 03:33N 47°15' W 122°34'9 8.2
2016-Sep-16 02:28N 47°10' W 122°44'27 1.2
2016-Sep-15 04:34N 47°35' W 122°27'6 6.4
2016-Sep-15 03:34N 47°41' W 122°26'11 5.5
2016-Sep-15 01:34N 47°52' W 122°22'12 4.0
2016-Sep-14 22:33N 48°01' W 122°11'0 0.0
2016-Sep-14 21:33N 48°01' W 122°11'0 0.0
2016-Sep-14 17:16N 48°01' W 122°11'0 0.0
2016-Sep-14 16:08N 48°01' W 122°11'0 0.0
2016-Sep-14 13:32N 48°01' W 122°11'0 0.0
2016-Sep-14 12:27N 48°01' W 122°11'0 0.0
2016-Sep-14 10:12N 48°01' W 122°11'2 2.7
2016-Sep-14 09:34N 48°00' W 122°13'7 7.3
2016-Sep-14 08:34N 47°55' W 122°21'8 7.7
2016-Sep-14 07:33N 47°48' W 122°24'7 7.5
2016-Sep-14 06:34N 47°40' W 122°27'22 7.4
2016-Sep-14 03:33N 47°18' W 122°33'  

Dump ship's entire track history